sensor_id;sensor_type;location;lat;lon;timestamp;P1;durP1;ratioP1;P2;durP2;ratioP2
31676;SDS011;18385;51.572;6.578;2022-07-31T00:01:22;1.55;;;0.68;;
31676;SDS011;18385;51.572;6.578;2022-07-31T00:03:48;4.28;;;0.88;;
31676;SDS011;18385;51.572;6.578;2022-07-31T00:06:14;5.53;;;0.77;;
31676;SDS011;18385;51.572;6.578;2022-07-31T00:08:41;2.65;;;0.90;;
31676;SDS011;18385;51.572;6.578;2022-07-31T00:11:07;2.33;;;0.80;;
31676;SDS011;18385;51.572;6.578;2022-07-31T00:13:35;2.50;;;0.82;;
31676;SDS011;18385;51.572;6.578;2022-07-31T00:16:01;2.78;;;0.90;;
31676;SDS011;18385;51.572;6.578;2022-07-31T00:18:27;2.17;;;0.90;;
31676;SDS011;18385;51.572;6.578;2022-07-31T00:20:53;4.28;;;1.00;;
31676;SDS011;18385;51.572;6.578;2022-07-31T00:23:18;2.72;;;0.98;;
31676;SDS011;18385;51.572;6.578;2022-07-31T00:25:44;2.65;;;1.27;;
31676;SDS011;18385;51.572;6.578;2022-07-31T00:28:10;3.70;;;0.90;;
31676;SDS011;18385;51.572;6.578;2022-07-31T00:30:35;1.40;;;0.98;;
31676;SDS011;18385;51.572;6.578;2022-07-31T00:33:02;2.90;;;1.13;;
31676;SDS011;18385;51.572;6.578;2022-07-31T00:35:27;2.33;;;1.17;;
31676;SDS011;18385;51.572;6.578;2022-07-31T00:37:53;3.33;;;1.00;;
31676;SDS011;18385;51.572;6.578;2022-07-31T00:40:20;3.08;;;1.33;;
31676;SDS011;18385;51.572;6.578;2022-07-31T00:42:46;1.92;;;0.85;;
31676;SDS011;18385;51.572;6.578;2022-07-31T00:45:11;2.53;;;1.30;;
31676;SDS011;18385;51.572;6.578;2022-07-31T00:47:37;1.58;;;0.63;;
31676;SDS011;18385;51.572;6.578;2022-07-31T00:50:03;2.85;;;0.70;;
31676;SDS011;18385;51.572;6.578;2022-07-31T00:52:29;1.35;;;0.80;;
31676;SDS011;18385;51.572;6.578;2022-07-31T00:54:55;1.75;;;1.20;;
31676;SDS011;18385;51.572;6.578;2022-07-31T00:57:21;3.63;;;1.25;;
31676;SDS011;18385;51.572;6.578;2022-07-31T00:59:46;2.35;;;0.80;;
31676;SDS011;18385;51.572;6.578;2022-07-31T01:02:12;2.55;;;1.25;;
31676;SDS011;18385;51.572;6.578;2022-07-31T01:04:38;2.10;;;1.00;;
31676;SDS011;18385;51.572;6.578;2022-07-31T01:07:04;1.60;;;0.77;;
31676;SDS011;18385;51.572;6.578;2022-07-31T01:09:30;2.42;;;1.02;;
31676;SDS011;18385;51.572;6.578;2022-07-31T01:12:07;2.53;;;1.00;;
31676;SDS011;18385;51.572;6.578;2022-07-31T01:14:35;2.65;;;1.02;;
31676;SDS011;18385;51.572;6.578;2022-07-31T01:17:05;1.95;;;0.90;;
31676;SDS011;18385;51.572;6.578;2022-07-31T01:25:13;2.17;;;1.00;;
31676;SDS011;18385;51.572;6.578;2022-07-31T01:28:08;3.47;;;0.95;;
31676;SDS011;18385;51.572;6.578;2022-07-31T01:33:18;3.50;;;0.93;;
31676;SDS011;18385;51.572;6.578;2022-07-31T01:35:50;2.30;;;1.08;;
31676;SDS011;18385;51.572;6.578;2022-07-31T01:38:29;1.42;;;0.68;;
31676;SDS011;18385;51.572;6.578;2022-07-31T01:41:00;1.92;;;1.08;;
31676;SDS011;18385;51.572;6.578;2022-07-31T01:43:31;2.05;;;0.85;;
31676;SDS011;18385;51.572;6.578;2022-07-31T01:46:01;4.93;;;1.20;;
31676;SDS011;18385;51.572;6.578;2022-07-31T01:48:31;3.38;;;1.08;;
31676;SDS011;18385;51.572;6.578;2022-07-31T01:50:58;3.88;;;1.08;;
31676;SDS011;18385;51.572;6.578;2022-07-31T01:53:27;3.47;;;1.30;;
31676;SDS011;18385;51.572;6.578;2022-07-31T01:55:59;3.67;;;1.25;;
31676;SDS011;18385;51.572;6.578;2022-07-31T01:58:26;2.53;;;1.13;;
31676;SDS011;18385;51.572;6.578;2022-07-31T02:00:58;3.05;;;0.93;;
31676;SDS011;18385;51.572;6.578;2022-07-31T02:03:27;4.82;;;1.33;;
31676;SDS011;18385;51.572;6.578;2022-07-31T02:05:54;3.33;;;1.27;;
31676;SDS011;18385;51.572;6.578;2022-07-31T02:08:21;2.33;;;1.00;;
31676;SDS011;18385;51.572;6.578;2022-07-31T02:10:49;4.20;;;1.13;;
31676;SDS011;18385;51.572;6.578;2022-07-31T02:13:17;4.43;;;1.30;;
31676;SDS011;18385;51.572;6.578;2022-07-31T02:15:44;3.20;;;1.20;;
31676;SDS011;18385;51.572;6.578;2022-07-31T02:18:14;2.78;;;1.17;;
31676;SDS011;18385;51.572;6.578;2022-07-31T02:20:56;2.15;;;1.20;;
31676;SDS011;18385;51.572;6.578;2022-07-31T02:23:24;3.58;;;1.23;;
31676;SDS011;18385;51.572;6.578;2022-07-31T02:25:50;2.13;;;1.00;;
31676;SDS011;18385;51.572;6.578;2022-07-31T02:28:16;4.57;;;1.23;;
31676;SDS011;18385;51.572;6.578;2022-07-31T02:30:46;2.25;;;1.10;;
31676;SDS011;18385;51.572;6.578;2022-07-31T02:33:15;1.60;;;0.90;;
31676;SDS011;18385;51.572;6.578;2022-07-31T02:35:44;8.75;;;1.45;;
31676;SDS011;18385;51.572;6.578;2022-07-31T02:38:18;4.20;;;1.20;;
31676;SDS011;18385;51.572;6.578;2022-07-31T02:40:47;1.50;;;0.90;;
31676;SDS011;18385;51.572;6.578;2022-07-31T02:43:14;3.88;;;1.00;;
31676;SDS011;18385;51.572;6.578;2022-07-31T02:45:41;3.20;;;1.30;;
31676;SDS011;18385;51.572;6.578;2022-07-31T02:48:08;2.05;;;1.05;;
31676;SDS011;18385;51.572;6.578;2022-07-31T02:50:38;4.68;;;1.40;;
31676;SDS011;18385;51.572;6.578;2022-07-31T02:53:05;3.22;;;1.20;;
31676;SDS011;18385;51.572;6.578;2022-07-31T02:55:32;1.80;;;1.23;;
31676;SDS011;18385;51.572;6.578;2022-07-31T02:57:58;3.75;;;1.13;;
31676;SDS011;18385;51.572;6.578;2022-07-31T03:00:26;4.18;;;1.00;;
31676;SDS011;18385;51.572;6.578;2022-07-31T03:02:53;5.10;;;1.40;;
31676;SDS011;18385;51.572;6.578;2022-07-31T03:05:21;4.32;;;1.10;;
31676;SDS011;18385;51.572;6.578;2022-07-31T03:07:47;2.53;;;1.25;;
31676;SDS011;18385;51.572;6.578;2022-07-31T03:10:12;2.65;;;1.45;;
31676;SDS011;18385;51.572;6.578;2022-07-31T03:12:53;3.95;;;1.40;;
31676;SDS011;18385;51.572;6.578;2022-07-31T03:15:22;2.38;;;1.75;;
31676;SDS011;18385;51.572;6.578;2022-07-31T03:17:50;4.60;;;2.10;;
31676;SDS011;18385;51.572;6.578;2022-07-31T03:20:24;3.83;;;1.60;;
31676;SDS011;18385;51.572;6.578;2022-07-31T03:22:51;4.47;;;2.03;;
31676;SDS011;18385;51.572;6.578;2022-07-31T03:25:17;3.50;;;1.83;;
31676;SDS011;18385;51.572;6.578;2022-07-31T03:27:45;9.55;;;2.20;;
31676;SDS011;18385;51.572;6.578;2022-07-31T03:30:16;7.35;;;2.22;;
31676;SDS011;18385;51.572;6.578;2022-07-31T03:32:51;7.93;;;2.35;;
31676;SDS011;18385;51.572;6.578;2022-07-31T03:35:17;9.35;;;2.20;;
31676;SDS011;18385;51.572;6.578;2022-07-31T03:37:43;6.53;;;2.60;;
31676;SDS011;18385;51.572;6.578;2022-07-31T03:40:10;9.40;;;2.42;;
31676;SDS011;18385;51.572;6.578;2022-07-31T03:42:36;5.78;;;2.40;;
31676;SDS011;18385;51.572;6.578;2022-07-31T03:45:03;3.78;;;1.67;;
31676;SDS011;18385;51.572;6.578;2022-07-31T03:47:31;3.10;;;1.55;;
31676;SDS011;18385;51.572;6.578;2022-07-31T03:49:58;4.25;;;1.80;;
31676;SDS011;18385;51.572;6.578;2022-07-31T03:52:25;4.95;;;1.98;;
31676;SDS011;18385;51.572;6.578;2022-07-31T03:54:52;3.92;;;1.77;;
31676;SDS011;18385;51.572;6.578;2022-07-31T03:57:20;3.03;;;1.90;;
31676;SDS011;18385;51.572;6.578;2022-07-31T03:59:47;4.43;;;2.22;;
31676;SDS011;18385;51.572;6.578;2022-07-31T04:02:15;4.97;;;2.20;;
31676;SDS011;18385;51.572;6.578;2022-07-31T04:04:47;3.40;;;1.42;;
31676;SDS011;18385;51.572;6.578;2022-07-31T04:07:13;4.60;;;1.65;;
31676;SDS011;18385;51.572;6.578;2022-07-31T04:09:39;5.13;;;2.08;;
31676;SDS011;18385;51.572;6.578;2022-07-31T04:12:06;5.78;;;2.10;;
31676;SDS011;18385;51.572;6.578;2022-07-31T04:14:32;3.72;;;1.83;;
31676;SDS011;18385;51.572;6.578;2022-07-31T04:16:58;4.72;;;1.95;;
31676;SDS011;18385;51.572;6.578;2022-07-31T04:19:24;5.20;;;1.85;;
31676;SDS011;18385;51.572;6.578;2022-07-31T04:21:50;2.92;;;1.90;;
31676;SDS011;18385;51.572;6.578;2022-07-31T04:24:16;5.90;;;2.67;;
31676;SDS011;18385;51.572;6.578;2022-07-31T04:26:53;3.55;;;2.13;;
31676;SDS011;18385;51.572;6.578;2022-07-31T04:29:21;3.47;;;2.00;;
31676;SDS011;18385;51.572;6.578;2022-07-31T04:31:47;4.25;;;2.08;;
31676;SDS011;18385;51.572;6.578;2022-07-31T04:34:21;4.93;;;2.28;;
31676;SDS011;18385;51.572;6.578;2022-07-31T04:36:47;6.15;;;2.30;;
31676;SDS011;18385;51.572;6.578;2022-07-31T04:39:13;6.22;;;2.22;;
31676;SDS011;18385;51.572;6.578;2022-07-31T04:41:39;4.15;;;2.22;;
31676;SDS011;18385;51.572;6.578;2022-07-31T04:44:04;3.03;;;2.33;;
31676;SDS011;18385;51.572;6.578;2022-07-31T04:46:50;6.18;;;2.78;;
31676;SDS011;18385;51.572;6.578;2022-07-31T04:49:16;5.68;;;2.60;;
31676;SDS011;18385;51.572;6.578;2022-07-31T04:51:42;8.00;;;2.55;;
31676;SDS011;18385;51.572;6.578;2022-07-31T04:54:08;4.22;;;2.55;;
31676;SDS011;18385;51.572;6.578;2022-07-31T04:56:35;6.55;;;2.50;;
31676;SDS011;18385;51.572;6.578;2022-07-31T04:59:06;5.25;;;3.00;;
31676;SDS011;18385;51.572;6.578;2022-07-31T05:01:35;8.02;;;2.97;;
31676;SDS011;18385;51.572;6.578;2022-07-31T05:04:02;6.38;;;3.05;;
31676;SDS011;18385;51.572;6.578;2022-07-31T05:06:38;6.28;;;2.90;;
31676;SDS011;18385;51.572;6.578;2022-07-31T05:09:07;7.22;;;3.30;;
31676;SDS011;18385;51.572;6.578;2022-07-31T05:11:35;6.72;;;2.97;;
31676;SDS011;18385;51.572;6.578;2022-07-31T05:14:03;5.38;;;3.15;;
31676;SDS011;18385;51.572;6.578;2022-07-31T05:16:30;6.03;;;2.83;;
31676;SDS011;18385;51.572;6.578;2022-07-31T05:18:57;6.65;;;3.50;;
31676;SDS011;18385;51.572;6.578;2022-07-31T05:21:59;6.88;;;3.53;;
31676;SDS011;18385;51.572;6.578;2022-07-31T05:24:31;5.13;;;3.20;;
31676;SDS011;18385;51.572;6.578;2022-07-31T05:27:01;8.93;;;3.65;;
31676;SDS011;18385;51.572;6.578;2022-07-31T05:29:28;7.25;;;3.05;;
31676;SDS011;18385;51.572;6.578;2022-07-31T05:31:55;6.63;;;3.45;;
31676;SDS011;18385;51.572;6.578;2022-07-31T05:34:21;5.32;;;2.72;;
31676;SDS011;18385;51.572;6.578;2022-07-31T05:36:47;7.75;;;3.75;;
31676;SDS011;18385;51.572;6.578;2022-07-31T05:39:13;6.40;;;3.13;;
31676;SDS011;18385;51.572;6.578;2022-07-31T05:42:00;6.50;;;4.15;;
31676;SDS011;18385;51.572;6.578;2022-07-31T05:44:34;6.97;;;3.50;;
31676;SDS011;18385;51.572;6.578;2022-07-31T05:47:00;4.53;;;3.20;;
31676;SDS011;18385;51.572;6.578;2022-07-31T05:49:26;6.85;;;3.38;;
31676;SDS011;18385;51.572;6.578;2022-07-31T05:51:54;4.93;;;4.03;;
31676;SDS011;18385;51.572;6.578;2022-07-31T05:54:20;10.05;;;3.80;;
31676;SDS011;18385;51.572;6.578;2022-07-31T05:57:04;6.18;;;3.65;;
31676;SDS011;18385;51.572;6.578;2022-07-31T05:59:39;5.85;;;3.88;;
31676;SDS011;18385;51.572;6.578;2022-07-31T06:02:05;7.82;;;4.20;;
31676;SDS011;18385;51.572;6.578;2022-07-31T06:04:43;7.00;;;4.00;;
31676;SDS011;18385;51.572;6.578;2022-07-31T06:07:09;9.63;;;4.38;;
31676;SDS011;18385;51.572;6.578;2022-07-31T06:09:35;5.75;;;3.42;;
31676;SDS011;18385;51.572;6.578;2022-07-31T06:12:02;5.63;;;3.58;;
31676;SDS011;18385;51.572;6.578;2022-07-31T06:14:28;8.70;;;4.10;;
31676;SDS011;18385;51.572;6.578;2022-07-31T06:17:17;8.20;;;4.20;;
31676;SDS011;18385;51.572;6.578;2022-07-31T06:19:43;11.73;;;4.43;;
31676;SDS011;18385;51.572;6.578;2022-07-31T06:22:10;9.13;;;4.13;;
31676;SDS011;18385;51.572;6.578;2022-07-31T06:24:36;6.38;;;4.00;;
31676;SDS011;18385;51.572;6.578;2022-07-31T06:27:02;7.55;;;3.63;;
31676;SDS011;18385;51.572;6.578;2022-07-31T06:29:31;7.55;;;3.45;;
31676;SDS011;18385;51.572;6.578;2022-07-31T06:31:57;6.47;;;3.00;;
31676;SDS011;18385;51.572;6.578;2022-07-31T06:34:23;12.70;;;4.13;;
31676;SDS011;18385;51.572;6.578;2022-07-31T06:36:49;6.32;;;3.78;;
31676;SDS011;18385;51.572;6.578;2022-07-31T06:39:18;6.88;;;3.80;;
31676;SDS011;18385;51.572;6.578;2022-07-31T06:42:22;5.10;;;3.05;;
31676;SDS011;18385;51.572;6.578;2022-07-31T06:45:17;8.20;;;3.10;;
31676;SDS011;18385;51.572;6.578;2022-07-31T06:48:06;6.85;;;3.88;;
31676;SDS011;18385;51.572;6.578;2022-07-31T06:50:39;7.15;;;2.70;;
31676;SDS011;18385;51.572;6.578;2022-07-31T06:53:30;4.53;;;2.58;;
31676;SDS011;18385;51.572;6.578;2022-07-31T06:55:55;10.88;;;2.88;;
31676;SDS011;18385;51.572;6.578;2022-07-31T06:58:21;4.55;;;2.25;;
31676;SDS011;18385;51.572;6.578;2022-07-31T07:00:47;3.42;;;2.08;;
31676;SDS011;18385;51.572;6.578;2022-07-31T07:03:13;4.25;;;2.60;;
31676;SDS011;18385;51.572;6.578;2022-07-31T07:05:40;4.95;;;2.47;;
31676;SDS011;18385;51.572;6.578;2022-07-31T07:08:07;3.60;;;2.17;;
31676;SDS011;18385;51.572;6.578;2022-07-31T07:10:33;4.57;;;2.33;;
31676;SDS011;18385;51.572;6.578;2022-07-31T07:12:59;6.85;;;2.58;;
31676;SDS011;18385;51.572;6.578;2022-07-31T07:15:27;3.85;;;2.70;;
31676;SDS011;18385;51.572;6.578;2022-07-31T07:17:53;5.28;;;2.55;;
31676;SDS011;18385;51.572;6.578;2022-07-31T07:20:28;3.45;;;2.25;;
31676;SDS011;18385;51.572;6.578;2022-07-31T07:22:55;3.55;;;1.73;;
31676;SDS011;18385;51.572;6.578;2022-07-31T07:25:46;4.72;;;2.17;;
31676;SDS011;18385;51.572;6.578;2022-07-31T07:28:14;5.18;;;2.60;;
31676;SDS011;18385;51.572;6.578;2022-07-31T07:30:41;5.10;;;2.35;;
31676;SDS011;18385;51.572;6.578;2022-07-31T07:33:06;3.50;;;2.20;;
31676;SDS011;18385;51.572;6.578;2022-07-31T07:35:32;5.15;;;2.20;;
31676;SDS011;18385;51.572;6.578;2022-07-31T07:37:58;5.35;;;2.00;;
31676;SDS011;18385;51.572;6.578;2022-07-31T07:40:24;4.15;;;2.30;;
31676;SDS011;18385;51.572;6.578;2022-07-31T07:42:51;3.08;;;2.08;;
31676;SDS011;18385;51.572;6.578;2022-07-31T07:45:17;3.72;;;2.20;;
31676;SDS011;18385;51.572;6.578;2022-07-31T07:47:43;3.78;;;2.10;;
31676;SDS011;18385;51.572;6.578;2022-07-31T07:50:09;4.18;;;1.98;;
31676;SDS011;18385;51.572;6.578;2022-07-31T07:53:02;3.17;;;1.70;;
31676;SDS011;18385;51.572;6.578;2022-07-31T07:55:46;3.58;;;1.67;;
31676;SDS011;18385;51.572;6.578;2022-07-31T07:58:50;4.32;;;1.88;;
31676;SDS011;18385;51.572;6.578;2022-07-31T08:01:39;5.35;;;1.90;;
31676;SDS011;18385;51.572;6.578;2022-07-31T08:04:16;4.30;;;1.98;;
31676;SDS011;18385;51.572;6.578;2022-07-31T08:06:42;4.47;;;1.95;;
31676;SDS011;18385;51.572;6.578;2022-07-31T08:09:08;6.32;;;2.10;;
31676;SDS011;18385;51.572;6.578;2022-07-31T08:12:02;3.08;;;1.77;;
31676;SDS011;18385;51.572;6.578;2022-07-31T08:14:58;3.30;;;1.58;;
31676;SDS011;18385;51.572;6.578;2022-07-31T08:17:38;3.10;;;1.80;;
31676;SDS011;18385;51.572;6.578;2022-07-31T08:20:05;3.90;;;1.48;;
31676;SDS011;18385;51.572;6.578;2022-07-31T08:22:31;3.72;;;1.70;;
31676;SDS011;18385;51.572;6.578;2022-07-31T08:24:57;2.47;;;1.67;;
31676;SDS011;18385;51.572;6.578;2022-07-31T08:27:23;2.83;;;1.63;;
31676;SDS011;18385;51.572;6.578;2022-07-31T08:29:49;3.97;;;1.83;;
31676;SDS011;18385;51.572;6.578;2022-07-31T08:32:19;3.47;;;1.73;;
31676;SDS011;18385;51.572;6.578;2022-07-31T08:35:04;3.65;;;1.63;;
31676;SDS011;18385;51.572;6.578;2022-07-31T08:37:30;5.00;;;2.20;;
31676;SDS011;18385;51.572;6.578;2022-07-31T08:39:56;3.28;;;1.90;;
31676;SDS011;18385;51.572;6.578;2022-07-31T08:42:22;3.28;;;2.03;;
31676;SDS011;18385;51.572;6.578;2022-07-31T08:44:48;3.90;;;1.90;;
31676;SDS011;18385;51.572;6.578;2022-07-31T08:47:17;4.53;;;2.00;;
31676;SDS011;18385;51.572;6.578;2022-07-31T08:49:44;5.43;;;1.95;;
31676;SDS011;18385;51.572;6.578;2022-07-31T08:52:16;4.20;;;2.10;;
31676;SDS011;18385;51.572;6.578;2022-07-31T08:55:21;7.85;;;2.13;;
31676;SDS011;18385;51.572;6.578;2022-07-31T08:57:48;3.92;;;2.13;;
31676;SDS011;18385;51.572;6.578;2022-07-31T09:00:13;3.67;;;2.20;;
31676;SDS011;18385;51.572;6.578;2022-07-31T09:02:44;3.83;;;1.83;;
31676;SDS011;18385;51.572;6.578;2022-07-31T09:05:13;5.00;;;2.13;;
31676;SDS011;18385;51.572;6.578;2022-07-31T09:07:40;3.70;;;2.00;;
31676;SDS011;18385;51.572;6.578;2022-07-31T09:10:07;3.05;;;1.95;;
31676;SDS011;18385;51.572;6.578;2022-07-31T09:12:49;3.60;;;1.90;;
31676;SDS011;18385;51.572;6.578;2022-07-31T09:15:23;2.10;;;1.48;;
31676;SDS011;18385;51.572;6.578;2022-07-31T09:17:51;4.78;;;1.90;;
31676;SDS011;18385;51.572;6.578;2022-07-31T09:20:18;2.47;;;1.60;;
31676;SDS011;18385;51.572;6.578;2022-07-31T09:22:45;2.35;;;1.50;;
31676;SDS011;18385;51.572;6.578;2022-07-31T09:25:13;3.78;;;1.58;;
31676;SDS011;18385;51.572;6.578;2022-07-31T09:27:43;2.92;;;1.50;;
31676;SDS011;18385;51.572;6.578;2022-07-31T09:30:09;3.78;;;1.33;;
31676;SDS011;18385;51.572;6.578;2022-07-31T09:32:54;1.70;;;1.10;;
31676;SDS011;18385;51.572;6.578;2022-07-31T09:35:48;3.42;;;1.25;;
31676;SDS011;18385;51.572;6.578;2022-07-31T09:38:15;3.50;;;1.20;;
31676;SDS011;18385;51.572;6.578;2022-07-31T09:41:14;3.00;;;1.23;;
31676;SDS011;18385;51.572;6.578;2022-07-31T09:43:58;4.63;;;1.40;;
31676;SDS011;18385;51.572;6.578;2022-07-31T09:46:40;2.65;;;1.38;;
31676;SDS011;18385;51.572;6.578;2022-07-31T09:49:10;1.80;;;1.27;;
31676;SDS011;18385;51.572;6.578;2022-07-31T09:51:38;2.97;;;1.13;;
31676;SDS011;18385;51.572;6.578;2022-07-31T09:54:22;2.10;;;1.30;;
31676;SDS011;18385;51.572;6.578;2022-07-31T09:57:09;3.53;;;1.73;;
31676;SDS011;18385;51.572;6.578;2022-07-31T09:59:39;4.70;;;1.50;;
31676;SDS011;18385;51.572;6.578;2022-07-31T10:02:05;2.53;;;1.33;;
31676;SDS011;18385;51.572;6.578;2022-07-31T10:04:34;3.88;;;1.88;;
31676;SDS011;18385;51.572;6.578;2022-07-31T10:07:09;2.85;;;1.50;;
31676;SDS011;18385;51.572;6.578;2022-07-31T10:09:39;2.92;;;1.42;;
31676;SDS011;18385;51.572;6.578;2022-07-31T10:12:26;3.65;;;1.52;;
31676;SDS011;18385;51.572;6.578;2022-07-31T10:14:55;5.70;;;1.80;;
31676;SDS011;18385;51.572;6.578;2022-07-31T10:17:33;2.15;;;1.25;;
31676;SDS011;18385;51.572;6.578;2022-07-31T10:20:20;2.20;;;0.85;;
31676;SDS011;18385;51.572;6.578;2022-07-31T10:23:18;1.65;;;1.23;;
31676;SDS011;18385;51.572;6.578;2022-07-31T10:25:53;1.58;;;1.10;;
31676;SDS011;18385;51.572;6.578;2022-07-31T10:28:21;3.08;;;1.23;;
31676;SDS011;18385;51.572;6.578;2022-07-31T10:30:48;3.10;;;1.27;;
31676;SDS011;18385;51.572;6.578;2022-07-31T10:33:15;3.85;;;1.38;;
31676;SDS011;18385;51.572;6.578;2022-07-31T10:36:02;3.53;;;1.45;;
31676;SDS011;18385;51.572;6.578;2022-07-31T10:47:18;3.47;;;1.30;;
31676;SDS011;18385;51.572;6.578;2022-07-31T10:50:00;3.20;;;1.50;;
31676;SDS011;18385;51.572;6.578;2022-07-31T10:52:49;1.90;;;1.20;;
31676;SDS011;18385;51.572;6.578;2022-07-31T10:55:22;2.63;;;1.20;;
31676;SDS011;18385;51.572;6.578;2022-07-31T10:58:26;1.85;;;1.30;;
31676;SDS011;18385;51.572;6.578;2022-07-31T11:01:04;2.25;;;1.13;;
31676;SDS011;18385;51.572;6.578;2022-07-31T11:04:01;3.67;;;1.20;;
31676;SDS011;18385;51.572;6.578;2022-07-31T11:06:50;3.13;;;1.08;;
31676;SDS011;18385;51.572;6.578;2022-07-31T11:09:43;2.63;;;1.30;;
31676;SDS011;18385;51.572;6.578;2022-07-31T11:12:28;2.30;;;1.08;;
31676;SDS011;18385;51.572;6.578;2022-07-31T11:15:20;2.08;;;1.20;;
31676;SDS011;18385;51.572;6.578;2022-07-31T11:18:13;3.22;;;0.93;;
31676;SDS011;18385;51.572;6.578;2022-07-31T11:20:57;1.48;;;0.95;;
31676;SDS011;18385;51.572;6.578;2022-07-31T11:23:28;1.83;;;1.10;;
31676;SDS011;18385;51.572;6.578;2022-07-31T11:25:57;2.72;;;1.20;;
31676;SDS011;18385;51.572;6.578;2022-07-31T11:28:27;1.60;;;0.98;;
31676;SDS011;18385;51.572;6.578;2022-07-31T11:30:54;2.00;;;1.23;;
31676;SDS011;18385;51.572;6.578;2022-07-31T11:35:54;3.22;;;1.40;;
31676;SDS011;18385;51.572;6.578;2022-07-31T11:38:27;1.48;;;1.15;;
31676;SDS011;18385;51.572;6.578;2022-07-31T11:40:53;3.80;;;1.38;;
31676;SDS011;18385;51.572;6.578;2022-07-31T11:43:19;2.38;;;1.00;;
31676;SDS011;18385;51.572;6.578;2022-07-31T11:45:49;1.25;;;0.90;;
31676;SDS011;18385;51.572;6.578;2022-07-31T11:48:17;1.92;;;1.30;;
31676;SDS011;18385;51.572;6.578;2022-07-31T11:50:44;3.65;;;1.10;;
31676;SDS011;18385;51.572;6.578;2022-07-31T11:53:10;3.15;;;1.00;;
31676;SDS011;18385;51.572;6.578;2022-07-31T11:55:44;4.72;;;1.27;;
31676;SDS011;18385;51.572;6.578;2022-07-31T11:58:19;1.77;;;1.30;;
31676;SDS011;18385;51.572;6.578;2022-07-31T12:00:49;3.67;;;1.20;;
31676;SDS011;18385;51.572;6.578;2022-07-31T12:03:21;2.40;;;1.30;;
31676;SDS011;18385;51.572;6.578;2022-07-31T12:05:48;3.97;;;1.30;;
31676;SDS011;18385;51.572;6.578;2022-07-31T12:08:16;1.65;;;1.10;;
31676;SDS011;18385;51.572;6.578;2022-07-31T12:10:43;2.35;;;1.27;;
31676;SDS011;18385;51.572;6.578;2022-07-31T12:13:17;3.00;;;1.33;;
31676;SDS011;18385;51.572;6.578;2022-07-31T12:18:52;3.05;;;1.10;;
31676;SDS011;18385;51.572;6.578;2022-07-31T12:23:57;2.53;;;1.33;;
31676;SDS011;18385;51.572;6.578;2022-07-31T12:26:24;3.53;;;1.10;;
31676;SDS011;18385;51.572;6.578;2022-07-31T12:31:26;2.58;;;1.15;;
31676;SDS011;18385;51.572;6.578;2022-07-31T12:33:53;3.55;;;1.60;;
31676;SDS011;18385;51.572;6.578;2022-07-31T12:36:19;2.95;;;1.13;;
31676;SDS011;18385;51.572;6.578;2022-07-31T12:38:45;1.75;;;1.23;;
31676;SDS011;18385;51.572;6.578;2022-07-31T12:41:22;1.40;;;1.08;;
31676;SDS011;18385;51.572;6.578;2022-07-31T12:43:47;2.78;;;1.10;;
31676;SDS011;18385;51.572;6.578;2022-07-31T12:46:13;1.42;;;1.10;;
31676;SDS011;18385;51.572;6.578;2022-07-31T12:48:39;3.00;;;1.50;;
31676;SDS011;18385;51.572;6.578;2022-07-31T12:51:05;2.63;;;1.15;;
31676;SDS011;18385;51.572;6.578;2022-07-31T12:53:30;1.90;;;1.23;;
31676;SDS011;18385;51.572;6.578;2022-07-31T12:55:57;2.97;;;1.08;;
31676;SDS011;18385;51.572;6.578;2022-07-31T12:58:22;2.17;;;1.35;;
31676;SDS011;18385;51.572;6.578;2022-07-31T13:00:48;2.47;;;1.38;;
31676;SDS011;18385;51.572;6.578;2022-07-31T13:03:14;2.88;;;1.52;;
31676;SDS011;18385;51.572;6.578;2022-07-31T13:05:40;3.10;;;1.13;;
31676;SDS011;18385;51.572;6.578;2022-07-31T13:08:07;2.20;;;1.00;;
31676;SDS011;18385;51.572;6.578;2022-07-31T13:10:33;2.00;;;1.30;;
31676;SDS011;18385;51.572;6.578;2022-07-31T13:12:59;4.93;;;1.55;;
31676;SDS011;18385;51.572;6.578;2022-07-31T13:15:25;2.13;;;1.38;;
31676;SDS011;18385;51.572;6.578;2022-07-31T13:17:57;1.63;;;1.25;;
31676;SDS011;18385;51.572;6.578;2022-07-31T13:20:26;2.33;;;1.20;;
31676;SDS011;18385;51.572;6.578;2022-07-31T13:22:52;2.33;;;1.30;;
31676;SDS011;18385;51.572;6.578;2022-07-31T13:25:17;1.98;;;1.30;;
31676;SDS011;18385;51.572;6.578;2022-07-31T13:27:44;1.73;;;1.35;;
31676;SDS011;18385;51.572;6.578;2022-07-31T13:30:10;1.73;;;1.42;;
31676;SDS011;18385;51.572;6.578;2022-07-31T13:32:36;2.17;;;1.35;;
31676;SDS011;18385;51.572;6.578;2022-07-31T13:35:02;1.38;;;1.10;;
31676;SDS011;18385;51.572;6.578;2022-07-31T13:37:28;2.05;;;1.23;;
31676;SDS011;18385;51.572;6.578;2022-07-31T13:39:53;2.95;;;1.30;;
31676;SDS011;18385;51.572;6.578;2022-07-31T13:42:19;1.35;;;1.00;;
31676;SDS011;18385;51.572;6.578;2022-07-31T13:44:45;2.08;;;1.48;;
31676;SDS011;18385;51.572;6.578;2022-07-31T13:47:10;2.67;;;1.50;;
31676;SDS011;18385;51.572;6.578;2022-07-31T13:49:36;1.33;;;1.17;;
31676;SDS011;18385;51.572;6.578;2022-07-31T13:52:03;2.60;;;1.98;;
31676;SDS011;18385;51.572;6.578;2022-07-31T13:54:29;4.85;;;1.60;;
31676;SDS011;18385;51.572;6.578;2022-07-31T13:56:55;3.15;;;1.30;;
31676;SDS011;18385;51.572;6.578;2022-07-31T13:59:20;2.50;;;1.30;;
31676;SDS011;18385;51.572;6.578;2022-07-31T14:01:46;2.38;;;1.40;;
31676;SDS011;18385;51.572;6.578;2022-07-31T14:04:19;5.25;;;2.00;;
31676;SDS011;18385;51.572;6.578;2022-07-31T14:06:45;2.80;;;1.05;;
31676;SDS011;18385;51.572;6.578;2022-07-31T14:09:11;3.20;;;1.50;;
31676;SDS011;18385;51.572;6.578;2022-07-31T14:11:37;3.50;;;1.30;;
31676;SDS011;18385;51.572;6.578;2022-07-31T14:14:03;2.55;;;1.00;;
31676;SDS011;18385;51.572;6.578;2022-07-31T14:16:29;6.22;;;1.05;;
31676;SDS011;18385;51.572;6.578;2022-07-31T14:18:54;1.60;;;1.38;;
31676;SDS011;18385;51.572;6.578;2022-07-31T14:21:20;3.13;;;1.40;;
31676;SDS011;18385;51.572;6.578;2022-07-31T14:23:46;1.65;;;1.30;;
31676;SDS011;18385;51.572;6.578;2022-07-31T14:26:12;3.60;;;1.00;;
31676;SDS011;18385;51.572;6.578;2022-07-31T14:28:38;2.00;;;1.30;;
31676;SDS011;18385;51.572;6.578;2022-07-31T14:31:03;1.98;;;1.17;;
31676;SDS011;18385;51.572;6.578;2022-07-31T14:33:29;3.40;;;1.20;;
31676;SDS011;18385;51.572;6.578;2022-07-31T14:35:55;3.75;;;1.73;;
31676;SDS011;18385;51.572;6.578;2022-07-31T14:38:21;1.90;;;1.10;;
31676;SDS011;18385;51.572;6.578;2022-07-31T14:40:46;1.23;;;0.98;;
31676;SDS011;18385;51.572;6.578;2022-07-31T14:43:12;1.48;;;0.98;;
31676;SDS011;18385;51.572;6.578;2022-07-31T14:45:38;1.88;;;1.10;;
31676;SDS011;18385;51.572;6.578;2022-07-31T14:48:05;2.42;;;1.40;;
31676;SDS011;18385;51.572;6.578;2022-07-31T14:50:30;1.52;;;1.17;;
31676;SDS011;18385;51.572;6.578;2022-07-31T14:52:56;2.17;;;1.17;;
31676;SDS011;18385;51.572;6.578;2022-07-31T14:55:22;2.67;;;1.10;;
31676;SDS011;18385;51.572;6.578;2022-07-31T14:57:50;3.00;;;1.37;;
31676;SDS011;18385;51.572;6.578;2022-07-31T15:00:16;4.65;;;1.50;;
31676;SDS011;18385;51.572;6.578;2022-07-31T15:02:42;2.58;;;1.25;;
31676;SDS011;18385;51.572;6.578;2022-07-31T15:05:09;3.05;;;1.88;;
31676;SDS011;18385;51.572;6.578;2022-07-31T15:07:36;2.33;;;1.25;;
31676;SDS011;18385;51.572;6.578;2022-07-31T15:10:05;2.15;;;1.50;;
31676;SDS011;18385;51.572;6.578;2022-07-31T15:12:32;2.97;;;1.70;;
31676;SDS011;18385;51.572;6.578;2022-07-31T15:14:58;3.75;;;1.65;;
31676;SDS011;18385;51.572;6.578;2022-07-31T15:17:24;2.38;;;1.30;;
31676;SDS011;18385;51.572;6.578;2022-07-31T15:19:50;1.58;;;1.13;;
31676;SDS011;18385;51.572;6.578;2022-07-31T15:22:15;2.65;;;1.30;;
31676;SDS011;18385;51.572;6.578;2022-07-31T15:24:44;1.60;;;0.90;;
31676;SDS011;18385;51.572;6.578;2022-07-31T15:27:11;3.30;;;1.50;;
31676;SDS011;18385;51.572;6.578;2022-07-31T15:29:37;2.78;;;1.67;;
31676;SDS011;18385;51.572;6.578;2022-07-31T15:32:03;3.63;;;2.00;;
31676;SDS011;18385;51.572;6.578;2022-07-31T15:34:28;4.20;;;1.40;;